createdAt,value
2018-11-14T00:00:50.891Z,1.40
2018-11-14T00:03:20.947Z,1.88
2018-11-14T00:05:50.906Z,1.80
2018-11-14T00:08:21.058Z,1.48
2018-11-14T00:10:51.188Z,1.60
2018-11-14T00:13:20.924Z,2.07
2018-11-14T00:15:50.961Z,1.55
2018-11-14T00:18:21.041Z,1.86
2018-11-14T00:20:51.021Z,1.87
2018-11-14T00:23:20.989Z,1.75
2018-11-14T00:25:51.078Z,1.95
2018-11-14T00:28:21.372Z,2.15
2018-11-14T00:30:51.206Z,2.10
2018-11-14T00:33:21.095Z,1.64
2018-11-14T00:35:50.988Z,1.95
2018-11-14T00:38:20.992Z,1.50
2018-11-14T00:40:51.016Z,1.82
2018-11-14T00:43:21.036Z,1.77
2018-11-14T00:45:50.983Z,1.77
2018-11-14T00:48:21.044Z,1.82
2018-11-14T00:50:51.052Z,1.75
2018-11-14T00:53:21.104Z,2.00
2018-11-14T00:55:51.016Z,2.22
2018-11-14T00:58:21.024Z,2.15
2018-11-14T01:00:51.056Z,1.67
2018-11-14T01:03:21.136Z,2.44
2018-11-14T01:05:51.091Z,1.75
2018-11-14T01:08:21.088Z,1.75
2018-11-14T01:10:51.119Z,1.98
2018-11-14T01:13:21.827Z,1.30
2018-11-14T01:15:51.059Z,1.87
2018-11-14T01:18:21.073Z,1.66
2018-11-14T01:20:51.084Z,1.87
2018-11-14T01:23:21.232Z,2.08
2018-11-14T01:25:51.071Z,2.00
2018-11-14T01:28:21.135Z,1.72
2018-11-14T01:30:51.168Z,2.27
2018-11-14T01:33:21.084Z,1.60
2018-11-14T01:35:51.177Z,1.70
2018-11-14T01:38:21.095Z,1.67
2018-11-14T01:40:51.123Z,1.55
2018-11-14T01:43:21.136Z,1.54
2018-11-14T01:45:51.228Z,1.72
2018-11-14T01:48:21.160Z,1.70
2018-11-14T01:50:51.186Z,1.75
2018-11-14T01:53:21.104Z,1.63
2018-11-14T01:55:51.268Z,1.62
2018-11-14T01:58:21.208Z,1.52
2018-11-14T02:00:51.143Z,1.40
2018-11-14T02:03:21.198Z,1.58
2018-11-14T02:05:51.204Z,1.35
2018-11-14T02:08:21.119Z,1.30
2018-11-14T02:10:51.243Z,1.40
2018-11-14T02:13:21.328Z,0.90
2018-11-14T02:15:51.340Z,1.50
2018-11-14T02:18:21.171Z,1.68
2018-11-14T02:20:51.190Z,2.10
2018-11-14T02:23:21.204Z,1.66
2018-11-14T02:25:51.270Z,0.90
2018-11-14T02:28:22.336Z,1.42
2018-11-14T02:30:51.525Z,1.23
2018-11-14T02:33:21.222Z,1.12
2018-11-14T02:35:51.282Z,1.50
2018-11-14T02:38:21.227Z,1.30
2018-11-14T02:40:51.219Z,1.10
2018-11-14T02:43:21.235Z,1.64
2018-11-14T02:45:51.252Z,1.35
2018-11-14T02:48:22.938Z,1.58
2018-11-14T02:51:08.167Z,1.70
2018-11-14T02:53:37.345Z,1.17
2018-11-14T02:56:10.363Z,1.20
2018-11-14T02:58:39.822Z,1.30
2018-11-14T03:01:09.080Z,1.50
2018-11-14T03:03:38.214Z,1.20
2018-11-14T03:06:07.349Z,1.57
2018-11-14T03:08:36.495Z,1.43
2018-11-14T03:11:06.159Z,1.30
2018-11-14T03:13:35.275Z,2.10
2018-11-14T03:16:04.481Z,1.22
2018-11-14T03:18:34.027Z,1.07
2018-11-14T03:21:03.435Z,1.30
2018-11-14T03:23:32.554Z,1.43
2018-11-14T03:26:01.690Z,1.20
2018-11-14T03:28:30.845Z,1.47
2018-11-14T03:30:59.986Z,1.47
2018-11-14T03:33:29.141Z,1.37
2018-11-14T03:36:03.338Z,1.63
2018-11-14T03:38:32.450Z,1.53
2018-11-14T03:41:01.583Z,1.10
2018-11-14T03:43:30.991Z,1.30
2018-11-14T03:46:00.128Z,1.10
2018-11-14T03:48:29.229Z,1.35
2018-11-14T03:50:58.386Z,1.55
2018-11-14T03:53:27.519Z,1.17
2018-11-14T03:55:56.648Z,1.43
2018-11-14T03:58:25.831Z,1.15
2018-11-14T04:00:54.900Z,1.30
2018-11-14T04:03:24.048Z,1.60
2018-11-14T04:05:53.128Z,0.93
2018-11-14T04:08:22.262Z,1.70
2018-11-14T04:10:51.411Z,0.88
2018-11-14T04:13:21.461Z,1.18
2018-11-14T04:15:51.442Z,1.10
2018-11-14T04:18:21.435Z,1.02
2018-11-14T04:20:51.383Z,1.70
2018-11-14T04:23:21.402Z,1.34
2018-11-14T04:25:51.446Z,1.37
2018-11-14T04:28:21.442Z,1.20
2018-11-14T04:30:51.468Z,0.95
2018-11-14T04:33:21.470Z,1.38
2018-11-14T04:35:51.490Z,1.75
2018-11-14T04:38:21.427Z,1.60
2018-11-14T04:40:51.414Z,1.47
2018-11-14T04:43:21.502Z,1.42
2018-11-14T04:45:51.464Z,1.00
2018-11-14T04:48:21.486Z,1.18
2018-11-14T04:50:51.497Z,1.37
2018-11-14T04:53:21.470Z,1.30
2018-11-14T04:55:51.422Z,0.93
2018-11-14T04:58:21.444Z,1.20
2018-11-14T05:00:51.454Z,1.00
2018-11-14T05:03:21.646Z,1.26
2018-11-14T05:05:51.560Z,1.05
2018-11-14T05:08:21.462Z,1.44
2018-11-14T05:10:51.494Z,0.70
2018-11-14T05:13:21.555Z,1.10
2018-11-14T05:15:51.615Z,1.05
2018-11-14T05:18:21.649Z,1.08
2018-11-14T05:20:51.486Z,1.02
2018-11-14T05:23:21.498Z,1.08
2018-11-14T05:25:51.546Z,1.10
2018-11-14T05:28:21.544Z,0.92
2018-11-14T05:30:51.657Z,0.75
2018-11-14T05:33:21.574Z,0.96
2018-11-14T05:35:51.590Z,1.00
2018-11-14T05:38:21.618Z,1.30
2018-11-14T05:40:51.531Z,0.90
2018-11-14T05:43:21.537Z,0.60
2018-11-14T05:45:51.549Z,1.20
2018-11-14T05:48:21.587Z,0.82
2018-11-14T05:50:51.590Z,0.68
2018-11-14T05:53:21.614Z,1.20
2018-11-14T05:55:51.542Z,0.80
2018-11-14T05:58:22.374Z,1.02
2018-11-14T06:00:51.596Z,1.02
2018-11-14T06:03:21.646Z,0.82
2018-11-14T06:05:51.657Z,0.60
2018-11-14T06:08:21.800Z,0.80
2018-11-14T06:10:51.561Z,0.80
2018-11-14T06:13:21.935Z,1.10
2018-11-14T06:15:51.658Z,1.30
2018-11-14T06:18:21.578Z,1.27
2018-11-14T06:20:51.589Z,1.40
2018-11-14T06:23:21.655Z,0.78
2018-11-14T06:25:51.632Z,0.70
2018-11-14T06:28:21.882Z,1.06
2018-11-14T06:30:51.746Z,0.88
2018-11-14T06:33:21.674Z,1.34
2018-11-14T06:35:51.691Z,1.12
2018-11-14T06:38:21.719Z,1.08
2018-11-14T06:40:51.690Z,1.15
2018-11-14T06:43:21.750Z,1.10
2018-11-14T06:45:51.683Z,1.00
2018-11-14T06:48:21.769Z,0.62
2018-11-14T06:50:51.702Z,0.93
2018-11-14T06:53:21.648Z,0.80
2018-11-14T06:55:51.759Z,1.05
2018-11-14T06:58:21.669Z,1.24
2018-11-14T07:00:51.669Z,1.10
2018-11-14T07:03:22.104Z,1.02
2018-11-14T07:05:51.857Z,0.80
2018-11-14T07:08:22.046Z,1.04
2018-11-14T07:10:57.825Z,0.90
2018-11-14T07:13:26.943Z,1.00
2018-11-14T07:15:56.067Z,1.20
2018-11-14T07:18:25.203Z,0.75
2018-11-14T07:20:54.356Z,0.97
2018-11-14T07:23:23.576Z,0.70
2018-11-14T07:25:52.682Z,1.20
2018-11-14T07:28:21.818Z,0.90
2018-11-14T07:30:51.778Z,1.15
2018-11-14T07:33:21.813Z,2.34
2018-11-14T07:35:51.754Z,0.80
2018-11-14T07:38:39.787Z,0.90
2018-11-14T07:41:14.045Z,0.70
2018-11-14T07:43:43.506Z,0.83
2018-11-14T07:46:13.240Z,0.90
2018-11-14T07:48:42.957Z,0.53
2018-11-14T07:51:12.095Z,0.97
2018-11-14T07:53:41.244Z,1.00
2018-11-14T07:56:10.362Z,0.83
2018-11-14T07:58:39.627Z,0.90
2018-11-14T08:01:09.498Z,1.40
2018-11-14T08:03:38.634Z,1.50
2018-11-14T08:06:07.847Z,1.02
2018-11-14T08:08:36.989Z,0.93
2018-11-14T08:11:06.927Z,1.40
2018-11-14T08:13:37.090Z,0.90
2018-11-14T08:16:06.797Z,1.00
2018-11-14T08:18:35.958Z,1.10
2018-11-14T08:21:05.499Z,1.37
2018-11-14T08:23:34.691Z,1.10
2018-11-14T08:26:03.881Z,0.88
2018-11-14T08:28:33.025Z,1.80
2018-11-14T08:31:02.215Z,1.30
2018-11-14T08:33:31.366Z,0.80
2018-11-14T08:36:00.486Z,1.00
2018-11-14T08:38:29.634Z,0.78
2018-11-14T08:40:58.750Z,0.93
2018-11-14T08:43:27.886Z,1.20
2018-11-14T08:45:57.007Z,1.10
2018-11-14T08:48:26.146Z,1.32
2018-11-14T08:50:55.265Z,0.73
2018-11-14T08:53:24.393Z,0.95
2018-11-14T08:55:53.521Z,1.10
2018-11-14T08:58:22.666Z,1.00
2018-11-14T09:00:51.994Z,1.20
2018-11-14T09:03:21.923Z,0.90
2018-11-14T09:05:51.929Z,0.93
2018-11-14T09:08:21.955Z,1.00
2018-11-14T09:10:52.395Z,0.85
2018-11-14T09:13:21.990Z,1.00
2018-11-14T09:15:52.009Z,0.90
2018-11-14T09:18:22.031Z,1.16
2018-11-14T09:20:52.046Z,1.17
2018-11-14T09:23:22.047Z,1.30
2018-11-14T09:25:52.037Z,0.78
2018-11-14T09:28:21.999Z,0.86
2018-11-14T09:30:52.000Z,1.32
2018-11-14T09:33:22.019Z,1.17
2018-11-14T09:35:52.093Z,1.22
2018-11-14T09:38:22.090Z,1.52
2018-11-14T09:40:52.003Z,1.00
2018-11-14T09:43:22.087Z,1.22
2018-11-14T09:45:52.060Z,1.50
2018-11-14T09:48:22.016Z,1.22
2018-11-14T09:50:52.038Z,1.40
2018-11-14T09:53:22.090Z,1.56
2018-11-14T09:55:52.004Z,1.62
2018-11-14T09:58:22.083Z,1.42
2018-11-14T10:00:52.028Z,1.70
2018-11-14T10:03:22.368Z,1.68
2018-11-14T10:05:52.087Z,1.73
2018-11-14T10:08:22.043Z,1.52
2018-11-14T10:10:52.073Z,1.60
2018-11-14T10:13:22.125Z,1.42
2018-11-14T10:15:52.096Z,1.47
2018-11-14T10:18:22.141Z,1.44
2018-11-14T10:20:52.135Z,1.40
2018-11-14T10:23:22.150Z,1.56
2018-11-14T10:25:52.310Z,1.20
2018-11-14T10:28:22.092Z,1.58
2018-11-14T10:30:52.180Z,1.20
2018-11-14T10:33:22.079Z,1.50
2018-11-14T10:35:52.227Z,1.45
2018-11-14T10:38:22.164Z,1.60
2018-11-14T10:40:52.168Z,1.20
2018-11-14T10:43:22.111Z,1.90
2018-11-14T10:45:52.208Z,1.50
2018-11-14T10:48:22.226Z,1.35
2018-11-14T10:50:52.399Z,1.40
2018-11-14T10:53:22.136Z,1.30
2018-11-14T10:55:52.158Z,1.20
2018-11-14T10:58:22.250Z,1.50
2018-11-14T11:00:57.566Z,1.50
2018-11-14T11:03:31.978Z,1.06
2018-11-14T11:06:04.174Z,1.23
2018-11-14T11:08:38.589Z,1.30
2018-11-14T11:11:13.115Z,1.60
2018-11-14T11:14:13.711Z,1.43
2018-11-14T11:16:49.286Z,1.20
2018-11-14T11:19:22.805Z,1.90
2018-11-14T11:21:52.346Z,1.42
2018-11-14T11:24:23.159Z,1.38
2018-11-14T11:26:52.311Z,1.30
2018-11-14T11:29:22.359Z,1.60
2018-11-14T11:31:52.449Z,1.30
2018-11-14T11:34:22.254Z,1.20
2018-11-14T11:36:54.142Z,1.35
2018-11-14T11:39:23.287Z,1.27
2018-11-14T11:41:52.427Z,0.90
2018-11-14T11:44:22.370Z,0.88
2018-11-14T11:46:52.326Z,1.12
2018-11-14T11:49:22.265Z,0.80
2018-11-14T11:51:52.362Z,1.10
2018-11-14T11:54:22.282Z,1.05
2018-11-14T11:56:52.402Z,1.02
2018-11-14T11:59:22.394Z,1.04
2018-11-14T12:01:52.461Z,1.37
2018-11-14T12:04:22.352Z,1.06
2018-11-14T12:06:52.371Z,0.80
2018-11-14T12:09:22.390Z,0.80
2018-11-14T12:11:52.465Z,0.88
2018-11-14T12:14:22.418Z,1.02
2018-11-14T12:16:52.318Z,0.63
2018-11-14T12:19:22.352Z,0.76
2018-11-14T12:21:52.374Z,0.80
2018-11-14T12:24:22.447Z,0.70
2018-11-14T12:26:52.646Z,0.62
2018-11-14T12:29:22.511Z,0.72
2018-11-14T12:31:52.502Z,0.70
2018-11-14T12:39:27.727Z,0.60
2018-11-14T12:41:56.856Z,0.70
2018-11-14T12:44:26.006Z,0.80
2018-11-14T12:46:55.146Z,0.80
2018-11-14T12:49:24.294Z,0.77
2018-11-14T12:51:53.470Z,1.00
2018-11-14T12:54:22.623Z,1.07
2018-11-14T12:56:52.536Z,0.80
2018-11-14T12:59:22.474Z,1.32
2018-11-14T13:01:52.430Z,0.93
2018-11-14T13:04:22.546Z,1.12
2018-11-14T13:06:52.621Z,1.37
2018-11-14T13:09:22.427Z,1.12
2018-11-14T13:11:52.494Z,1.32
2018-11-14T13:14:22.526Z,1.32
2018-11-14T13:16:52.546Z,1.50
2018-11-14T13:19:22.453Z,1.52
2018-11-14T13:21:52.538Z,1.70
2018-11-14T13:24:22.477Z,1.28
2018-11-14T13:26:53.145Z,1.50
2018-11-14T13:29:22.524Z,1.22
2018-11-14T13:31:52.532Z,1.32
2018-11-14T13:34:22.533Z,1.25
2018-11-14T13:36:53.108Z,1.40
2018-11-14T13:39:22.526Z,1.35
2018-11-14T13:41:52.506Z,1.05
2018-11-14T13:44:22.525Z,1.34
2018-11-14T13:46:52.539Z,1.10
2018-11-14T13:49:22.989Z,1.32
2018-11-14T13:51:52.510Z,0.85
2018-11-14T13:54:22.842Z,0.90
2018-11-14T13:56:52.609Z,0.90
2018-11-14T13:59:22.507Z,0.96
2018-11-14T14:01:52.538Z,1.17
2018-11-14T14:04:22.557Z,1.05
2018-11-14T14:06:52.562Z,1.05
2018-11-14T14:09:22.615Z,1.50
2018-11-14T14:11:52.663Z,0.90
2018-11-14T14:14:22.616Z,0.80
2018-11-14T14:16:52.639Z,0.95
2018-11-14T14:19:22.664Z,1.10
2018-11-14T14:21:52.675Z,1.10
2018-11-14T14:24:22.590Z,1.28
2018-11-14T14:26:53.305Z,1.10
2018-11-14T14:29:23.599Z,1.48
2018-11-14T14:31:52.726Z,1.20
2018-11-14T14:34:22.714Z,1.30
2018-11-14T14:36:52.928Z,1.55
2018-11-14T14:39:22.706Z,1.40
2018-11-14T14:41:52.702Z,1.27
2018-11-14T14:44:22.726Z,1.38
2018-11-14T14:46:52.744Z,1.47
2018-11-14T14:49:22.766Z,1.18
2018-11-14T14:51:52.671Z,1.40
2018-11-14T14:54:22.694Z,1.20
2018-11-14T14:56:52.715Z,1.10
2018-11-14T14:59:22.727Z,1.24
2018-11-14T15:01:52.734Z,1.00
2018-11-14T15:04:22.758Z,0.90
2018-11-14T15:06:52.846Z,1.22
2018-11-14T15:09:22.821Z,1.06
2018-11-14T15:11:52.798Z,0.93
2018-11-14T15:14:22.955Z,1.30
2018-11-14T15:16:54.934Z,1.30
2018-11-14T15:19:24.087Z,1.12
2018-11-14T15:21:53.443Z,1.43
2018-11-14T15:24:22.798Z,1.20
2018-11-14T15:26:52.834Z,0.93
2018-11-14T15:29:22.916Z,1.62
2018-11-14T15:31:52.850Z,1.30
2018-11-14T15:34:22.914Z,1.07
2018-11-14T15:36:52.879Z,1.22
2018-11-14T15:39:22.939Z,1.08
2018-11-14T15:41:52.830Z,1.45
2018-11-14T15:44:23.015Z,1.04
2018-11-14T15:46:53.735Z,1.05
2018-11-14T15:49:22.918Z,1.07
2018-11-14T15:51:52.898Z,1.00
2018-11-14T15:54:22.919Z,1.00
2018-11-14T15:56:52.988Z,1.00
2018-11-14T15:59:23.010Z,1.14
2018-11-14T16:01:53.107Z,1.40
2018-11-14T16:04:23.159Z,1.16
2018-11-14T16:06:52.915Z,1.37
2018-11-14T16:09:23.055Z,1.40
2018-11-14T16:11:53.078Z,1.35
2018-11-14T16:14:23.049Z,1.10
2018-11-14T16:16:53.732Z,1.45
2018-11-14T16:19:22.998Z,1.12
2018-11-14T16:21:53.043Z,1.47
2018-11-14T16:24:23.070Z,1.56
2018-11-14T16:26:53.026Z,1.87
2018-11-14T16:29:23.102Z,1.14
2018-11-14T16:31:53.217Z,2.02
2018-11-14T16:34:23.082Z,1.54
2018-11-14T16:36:53.151Z,1.57
2018-11-14T16:39:23.272Z,1.58
2018-11-14T16:41:53.134Z,1.90
2018-11-14T16:44:23.194Z,1.68
2018-11-14T16:46:53.077Z,2.10
2018-11-14T16:49:23.086Z,1.58
2018-11-14T16:51:53.069Z,1.80
2018-11-14T16:54:23.155Z,1.70
2018-11-14T16:56:53.283Z,1.70
2018-11-14T16:59:23.165Z,1.68
2018-11-14T17:01:53.103Z,2.27
2018-11-14T17:04:23.151Z,1.67
2018-11-14T17:06:54.009Z,1.85
2018-11-14T17:09:23.306Z,2.17
2018-11-14T17:11:53.129Z,2.10
2018-11-14T17:14:23.213Z,2.20
2018-11-14T17:16:53.139Z,2.40
2018-11-14T17:19:23.210Z,2.68
2018-11-14T17:21:53.326Z,2.55
2018-11-14T17:24:23.237Z,2.32
2018-11-14T17:26:55.367Z,2.08
2018-11-14T17:29:24.507Z,1.67
2018-11-14T17:31:53.634Z,2.00
2018-11-14T17:34:23.219Z,2.47
2018-11-14T17:36:53.200Z,2.72
2018-11-14T17:39:23.443Z,2.28
2018-11-14T17:41:53.407Z,2.50
2018-11-14T17:44:23.275Z,2.38
2018-11-14T17:46:53.333Z,2.47
2018-11-14T17:49:23.362Z,2.36
2018-11-14T17:51:53.582Z,2.52
2018-11-14T17:54:23.751Z,2.40
2018-11-14T17:56:53.595Z,2.70
2018-11-14T17:59:23.253Z,2.27
2018-11-14T18:01:53.298Z,3.05
2018-11-14T18:04:23.293Z,3.00
2018-11-14T18:06:53.409Z,2.25
2018-11-14T18:09:23.326Z,1.76
2018-11-14T18:11:53.493Z,1.87
2018-11-14T18:14:23.360Z,1.30
2018-11-14T18:16:53.389Z,1.47
2018-11-14T18:19:23.387Z,1.95
2018-11-14T18:21:53.497Z,1.82
2018-11-14T18:24:23.382Z,1.60
2018-11-14T18:26:53.377Z,1.72
2018-11-14T18:29:23.432Z,1.72
2018-11-14T18:31:53.462Z,1.72
2018-11-14T18:34:23.359Z,2.10
2018-11-14T18:36:53.694Z,2.20
2018-11-14T18:39:23.557Z,1.78
2018-11-14T18:41:53.515Z,1.52
2018-11-14T18:44:23.614Z,1.87
2018-11-14T18:46:53.582Z,1.10
2018-11-14T18:49:23.654Z,1.24
2018-11-14T18:51:53.516Z,1.47
2018-11-14T18:54:24.684Z,1.90
2018-11-14T18:56:54.232Z,1.80
2018-11-14T18:59:23.489Z,1.93
2018-11-14T19:01:53.510Z,2.00
2018-11-14T19:04:23.545Z,1.86
2018-11-14T19:06:53.614Z,1.90
2018-11-14T19:09:23.599Z,1.90
2018-11-14T19:11:53.545Z,2.22
2018-11-14T19:14:23.518Z,1.42
2018-11-14T19:16:53.650Z,2.17
2018-11-14T19:19:23.456Z,1.54
2018-11-14T19:21:53.713Z,1.95
2018-11-14T19:24:23.638Z,2.14
2018-11-14T19:26:53.719Z,1.98
2018-11-14T19:29:23.571Z,1.87
2018-11-14T19:31:53.575Z,2.35
2018-11-14T19:34:23.580Z,1.90
2018-11-14T19:36:53.704Z,2.45
2018-11-14T19:39:23.529Z,2.10
2018-11-14T19:41:53.602Z,1.77
2018-11-14T19:44:23.631Z,2.12
2018-11-14T19:46:53.770Z,2.62
2018-11-14T19:49:23.549Z,2.77
2018-11-14T19:51:53.676Z,2.00
2018-11-14T19:54:23.542Z,2.12
2018-11-14T19:56:53.593Z,2.33
2018-11-14T19:59:23.526Z,2.47
2018-11-14T20:01:53.763Z,2.47
2018-11-14T20:04:23.623Z,2.16
2018-11-14T20:06:53.643Z,2.20
2018-11-14T20:09:23.622Z,1.94
2018-11-14T20:11:53.680Z,2.08
2018-11-14T20:14:23.722Z,2.35
2018-11-14T20:16:53.702Z,1.95
2018-11-14T20:19:23.623Z,3.00
2018-11-14T20:21:53.868Z,2.50
2018-11-14T20:24:23.639Z,2.24
2018-11-14T20:26:53.675Z,2.27
2018-11-14T20:29:23.671Z,2.58
2018-11-14T20:31:53.781Z,1.85
2018-11-14T20:34:23.687Z,2.20
2018-11-14T20:36:53.739Z,1.65
2018-11-14T20:39:23.628Z,2.24
2018-11-14T20:41:53.775Z,1.80
2018-11-14T20:44:23.676Z,2.40
2018-11-14T20:46:53.643Z,1.42
2018-11-14T20:49:23.691Z,1.94
2018-11-14T20:51:53.733Z,1.75
2018-11-14T20:54:23.735Z,1.72
2018-11-14T20:56:53.746Z,2.00
2018-11-14T20:59:23.761Z,2.33
2018-11-14T21:01:53.745Z,2.42
2018-11-14T21:04:23.913Z,1.98
2018-11-14T21:06:53.702Z,1.95
2018-11-14T21:09:23.756Z,2.22
2018-11-14T21:11:53.750Z,2.30
2018-11-14T21:14:24.049Z,2.05
2018-11-14T21:16:53.754Z,2.30
2018-11-14T21:19:24.296Z,2.00
2018-11-14T21:21:53.697Z,2.27
2018-11-14T21:24:23.818Z,2.58
2018-11-14T21:26:53.713Z,2.00
2018-11-14T21:29:23.935Z,2.60
2018-11-14T21:31:53.765Z,2.72
2018-11-14T21:34:23.818Z,1.96
2018-11-14T21:36:53.745Z,2.47
2018-11-14T21:39:23.861Z,2.90
2018-11-14T21:41:53.827Z,2.17
2018-11-14T21:44:23.839Z,2.40
2018-11-14T21:46:53.795Z,2.25
2018-11-14T21:49:29.059Z,2.38
2018-11-14T21:51:59.097Z,2.10
2018-11-14T21:54:28.413Z,2.10
2018-11-14T21:56:57.806Z,2.10
2018-11-14T21:59:26.955Z,2.20
2018-11-14T22:01:56.095Z,2.70
2018-11-14T22:04:25.235Z,2.00
2018-11-14T22:06:54.371Z,2.70
2018-11-14T22:09:23.831Z,2.38
2018-11-14T22:11:53.867Z,2.30
2018-11-14T22:14:23.936Z,2.70
2018-11-14T22:16:53.899Z,2.15
2018-11-14T22:19:23.976Z,2.16
2018-11-14T22:21:53.946Z,2.72
2018-11-14T22:24:23.826Z,1.64
2018-11-14T22:26:53.866Z,2.52
2018-11-14T22:29:23.886Z,1.90
2018-11-14T22:31:53.841Z,2.12
2018-11-14T22:34:23.931Z,1.76
2018-11-14T22:36:53.938Z,2.22
2018-11-14T22:39:24.011Z,1.70
2018-11-14T22:41:53.925Z,2.10
2018-11-14T22:44:23.942Z,2.35
2018-11-14T22:46:53.962Z,1.67
2018-11-14T22:49:23.909Z,1.60
2018-11-14T22:51:54.086Z,1.37
2018-11-14T22:54:23.934Z,1.70
2018-11-14T22:56:53.945Z,1.55
2018-11-14T22:59:23.877Z,2.22
2018-11-14T23:01:53.885Z,2.65
2018-11-14T23:04:23.936Z,1.68
2018-11-14T23:06:53.938Z,2.00
2018-11-14T23:09:23.968Z,1.68
2018-11-14T23:11:53.968Z,1.62
2018-11-14T23:14:24.007Z,1.37
2018-11-14T23:16:54.007Z,2.50
2018-11-14T23:19:24.031Z,2.16
2018-11-14T23:21:53.931Z,2.75
2018-11-14T23:24:23.967Z,2.40
2018-11-14T23:26:54.078Z,2.25
2018-11-14T23:29:24.063Z,2.40
2018-11-14T23:31:54.015Z,2.95
2018-11-14T23:34:24.023Z,1.88
2018-11-14T23:36:53.972Z,1.87
2018-11-14T23:39:24.071Z,1.77
2018-11-14T23:41:53.975Z,1.82
2018-11-14T23:44:23.992Z,1.72
2018-11-14T23:46:54.075Z,2.02
2018-11-14T23:49:24.048Z,1.95
2018-11-14T23:51:54.083Z,1.90
2018-11-14T23:54:24.109Z,1.70
2018-11-14T23:56:53.998Z,2.20
2018-11-14T23:59:24.119Z,2.17
